SKPC/PCR METAR and TAF weather

Enter ICAO airport designator
Station Type Date Time Source
SKPC METAR 2019/08/17 23:00 UTC NOAA

SKPC 172300Z 00000KT 9999 FEW015 SCT070 26/22 A2987


Station Type Date Time Source
SKPC Decoded METAR 2019/08/17 23:00 UTC NOAA

Station name not available
Aug 17, 2019 - 07:00 PM EDT / 2019.08.17 2300 UTC
Wind: Calm:0
Visibility: greater than 7 mile(s):0
Sky conditions: partly cloudy
Temperature: 78 F (26 C)
Dew Point: 71 F (22 C)
Relative Humidity: 78%
Pressure (altimeter): 29.87 in. Hg (1011 hPa)
ob: SKPC 172300Z 00000KT 9999 FEW015 SCT070 26/22 A2987
cycle: 23

Station Type Date Time Source
SKPC TAF UTC NOAA

Error!

Example: see airport list